Time;durP1;ratioP1;P1;durP2;ratioP2;P2;SDS_P1;SDS_P2;PMS_P1;PMS_P2;Temp;Humidity;BMP_temperature;BMP_pressure;BME280_temperature;BME280_humidity;BME280_pressure;Samples;Min_cycle;Max_cycle;Signal;HPM_P1;HPM_P2
2023/08/17 00:00:09;;;;;;;4.53;2.97;;;;;;;-146.82;100.00;71671.09;5074235;28;20111;-80
2023/08/17 00:02:35;;;;;;;5.88;3.00;;;;;;;-146.82;100.00;71671.09;5072769;28;20079;-79
2023/08/17 00:05:00;;;;;;;6.03;3.30;;;;;;;-146.82;100.00;71671.09;5072865;28;20060;-80
2023/08/17 00:07:26;;;;;;;6.30;2.90;;;;;;;-146.82;100.00;71671.09;5074459;28;20020;-80
2023/08/17 00:09:51;;;;;;;8.27;3.25;;;;;;;-146.82;100.00;71671.09;5074210;28;20180;-80
2023/08/17 00:12:17;;;;;;;4.72;3.20;;;;;;;-146.82;100.00;71671.09;5075018;28;20432;-80
2023/08/17 00:14:42;;;;;;;3.25;2.75;;;;;;;-146.82;100.00;71671.09;5076359;28;20028;-80
2023/08/17 00:17:07;;;;;;;3.83;3.20;;;;;;;-146.82;100.00;71671.09;5075992;28;20111;-81
2023/08/17 00:19:33;;;;;;;5.75;2.97;;;;;;;-146.82;100.00;71671.09;5074721;28;20028;-81
2023/08/17 00:21:58;;;;;;;4.15;3.15;;;;;;;-146.82;100.00;71671.09;5074842;28;20028;-80
2023/08/17 00:24:24;;;;;;;4.82;3.60;;;;;;;-146.82;100.00;71671.09;5074926;28;20033;-80
2023/08/17 00:26:49;;;;;;;3.83;3.08;;;;;;;-146.82;100.00;71671.09;5076182;28;20414;-80
2023/08/17 00:29:15;;;;;;;4.50;3.08;;;;;;;-146.82;100.00;71671.09;5075084;28;20063;-81
2023/08/17 00:31:41;;;;;;;4.72;3.53;;;;;;;-146.82;100.00;71671.09;5075982;28;20078;-81
2023/08/17 00:34:06;;;;;;;4.85;3.28;;;;;;;-146.82;100.00;71671.09;5075967;28;20024;-83
2023/08/17 00:36:31;;;;;;;4.47;3.10;;;;;;;-146.82;100.00;71671.09;5075787;28;20054;-81
2023/08/17 00:38:57;;;;;;;3.60;2.95;;;;;;;-146.82;100.00;71671.09;5075990;28;20476;-81
2023/08/17 00:41:22;;;;;;;3.38;2.53;;;;;;;-146.82;100.00;71671.09;5075934;28;20024;-82
2023/08/17 00:43:48;;;;;;;6.18;2.78;;;;;;;-146.82;100.00;71671.09;5075935;28;20451;-80
2023/08/17 00:46:14;;;;;;;4.20;2.83;;;;;;;-146.82;100.00;71671.09;5075678;28;20032;-81
2023/08/17 00:48:40;;;;;;;3.50;2.30;;;;;;;-146.82;100.00;71671.09;5074340;28;20024;-79
2023/08/17 00:51:05;;;;;;;3.53;2.92;;;;;;;-146.82;100.00;71671.09;5075689;28;20043;-81
2023/08/17 00:53:31;;;;;;;4.32;3.00;;;;;;;-146.82;100.00;71671.09;5075698;28;20107;-80
2023/08/17 00:55:57;;;;;;;3.35;2.58;;;;;;;-146.82;100.00;71671.09;5057571;28;20479;-80
2023/08/17 00:58:23;;;;;;;3.35;2.40;;;;;;;-146.82;100.00;71671.09;5075517;28;20116;-80
2023/08/17 01:00:49;;;;;;;6.07;2.67;;;;;;;-146.82;100.00;71671.09;5075463;28;20024;-79
2023/08/17 01:03:15;;;;;;;10.02;3.10;;;;;;;-146.82;100.00;71671.09;5073935;28;20098;-80
2023/08/17 01:05:40;;;;;;;5.20;3.17;;;;;;;-146.82;100.00;71671.09;5074017;28;20495;-80
2023/08/17 01:08:06;;;;;;;6.20;3.05;;;;;;;-146.82;100.00;71671.09;5057357;28;20028;-80
2023/08/17 01:10:44;;;;;;;8.45;4.25;;;;;;;-146.82;100.00;71671.09;5079823;28;20031;-79
2023/08/17 01:13:15;;;;;;;6.53;4.47;;;;;;;-146.82;100.00;71671.09;5066284;28;20024;-79
2023/08/17 01:15:50;;;;;;;12.80;4.22;;;;;;;-146.82;100.00;71671.09;5080481;28;20028;-80
2023/08/17 01:18:31;;;;;;;6.13;3.80;;;;;;;-146.82;100.00;71671.09;5081066;28;20036;-80
2023/08/17 01:20:57;;;;;;;5.93;4.20;;;;;;;-146.82;100.00;71671.09;5082508;28;20099;-81
2023/08/17 01:23:22;;;;;;;5.32;4.07;;;;;;;-146.82;100.00;71671.09;5079717;28;20021;-79
2023/08/17 01:25:48;;;;;;;8.05;4.50;;;;;;;-146.82;100.00;71671.09;5081211;28;20034;-80
2023/08/17 01:28:13;;;;;;;7.88;4.45;;;;;;;-146.82;100.00;71671.09;5074302;28;20028;-81
2023/08/17 01:31:01;;;;;;;5.93;4.13;;;;;;;-146.82;100.00;71671.09;5075020;28;20028;-81
2023/08/17 01:33:35;;;;;;;6.38;4.32;;;;;;;-146.82;100.00;71671.09;5073833;28;20032;-79
2023/08/17 01:36:19;;;;;;;6.63;4.10;;;;;;;-146.82;100.00;71671.09;5072484;28;20051;-79
2023/08/17 01:38:45;;;;;;;4.95;3.90;;;;;;;-146.82;100.00;71671.09;5072281;28;20035;-79
2023/08/17 01:41:15;;;;;;;8.88;4.38;;;;;;;-146.82;100.00;71671.09;5073170;28;20028;-80
2023/08/17 01:43:45;;;;;;;5.60;4.10;;;;;;;-146.82;100.00;71671.09;5073421;28;20033;-79
2023/08/17 01:46:16;;;;;;;6.18;3.72;;;;;;;-146.82;100.00;71671.09;5057026;28;20110;-81
2023/08/17 01:48:42;;;;;;;8.17;3.97;;;;;;;-146.82;100.00;71671.09;5073179;28;20449;-79
2023/08/17 01:51:08;;;;;;;4.28;3.38;;;;;;;-146.82;100.00;71671.09;5073238;28;20063;-80
2023/08/17 01:53:33;;;;;;;4.05;3.30;;;;;;;-146.82;100.00;71671.09;5073221;28;20081;-80
2023/08/17 01:55:59;;;;;;;4.88;2.92;;;;;;;-146.82;100.00;71671.09;5074635;28;20435;-80
2023/08/17 01:58:24;;;;;;;3.80;3.35;;;;;;;-146.82;100.00;71671.09;5074398;28;20526;-80
2023/08/17 02:00:49;;;;;;;5.13;2.80;;;;;;;-146.82;100.00;71671.09;5073162;28;20020;-79
2023/08/17 02:03:15;;;;;;;5.28;4.03;;;;;;;-146.82;100.00;71671.09;5072596;28;20049;-79
2023/08/17 02:05:46;;;;;;;3.70;2.88;;;;;;;-146.82;100.00;71671.09;5074115;28;20032;-80
2023/08/17 02:08:12;;;;;;;7.45;3.65;;;;;;;-146.82;100.00;71671.09;5074494;28;20078;-81
2023/08/17 02:10:37;;;;;;;5.25;3.75;;;;;;;-146.82;100.00;71671.09;5074336;28;20028;-80
2023/08/17 02:13:03;;;;;;;8.35;3.55;;;;;;;-146.82;100.00;71671.09;5074256;28;20039;-80
2023/08/17 02:15:28;;;;;;;6.20;3.20;;;;;;;-146.82;100.00;71671.09;5074126;28;20040;-79
2023/08/17 02:17:54;;;;;;;6.18;3.15;;;;;;;-146.82;100.00;71671.09;5074109;28;20071;-79
2023/08/17 02:20:19;;;;;;;4.75;3.70;;;;;;;-146.82;100.00;71671.09;5073921;28;20024;-79
2023/08/17 02:22:45;;;;;;;6.50;3.92;;;;;;;-146.82;100.00;71671.09;5072810;28;20032;-80
2023/08/17 02:25:10;;;;;;;5.03;3.33;;;;;;;-146.82;100.00;71671.09;5073870;28;20446;-78
2023/08/17 02:27:35;;;;;;;5.65;4.57;;;;;;;-146.82;100.00;71671.09;5074173;28;20103;-79
2023/08/17 02:30:02;;;;;;;9.18;4.75;;;;;;;-146.82;100.00;71671.09;5072506;28;20074;-78
2023/08/17 02:32:27;;;;;;;6.72;4.03;;;;;;;-146.82;100.00;71671.09;5073977;28;20437;-78
2023/08/17 02:34:53;;;;;;;5.55;4.00;;;;;;;-146.82;100.00;71671.09;5073562;28;20099;-79
2023/08/17 02:37:18;;;;;;;6.10;4.35;;;;;;;-146.82;100.00;71671.09;5073420;28;20093;-79
2023/08/17 02:39:44;;;;;;;6.43;4.00;;;;;;;-146.82;100.00;71671.09;5072400;28;20032;-78
2023/08/17 02:42:09;;;;;;;5.97;3.80;;;;;;;-146.82;100.00;71671.09;5072701;28;20027;-78
2023/08/17 02:44:34;;;;;;;8.93;4.53;;;;;;;-146.82;100.00;71671.09;5072394;28;20472;-79
2023/08/17 02:47:00;;;;;;;6.28;4.10;;;;;;;-146.82;100.00;71671.09;5055650;28;20107;-78
2023/08/17 02:49:25;;;;;;;7.15;3.78;;;;;;;-146.82;100.00;71671.09;5055579;28;20085;-79
2023/08/17 02:51:50;;;;;;;7.35;3.20;;;;;;;-146.82;100.00;71671.09;5073279;28;20036;-79
2023/08/17 02:54:16;;;;;;;6.57;3.90;;;;;;;-146.82;100.00;71671.09;5072227;28;20178;-78
2023/08/17 02:56:41;;;;;;;6.15;4.05;;;;;;;-146.82;100.00;71671.09;5073418;28;20035;-78
2023/08/17 02:59:07;;;;;;;5.32;3.33;;;;;;;-146.82;100.00;71671.09;5073527;28;20025;-79
2023/08/17 03:01:32;;;;;;;7.97;4.07;;;;;;;-146.82;100.00;71671.09;5073696;28;20024;-78
2023/08/17 03:03:58;;;;;;;6.18;3.30;;;;;;;-146.82;100.00;71671.09;5073261;28;20060;-79
2023/08/17 03:06:23;;;;;;;6.22;3.80;;;;;;;-146.82;100.00;71671.09;5071917;28;20028;-79
2023/08/17 03:08:49;;;;;;;8.48;3.88;;;;;;;-146.82;100.00;71671.09;5073151;28;20067;-79
2023/08/17 03:11:14;;;;;;;5.32;4.03;;;;;;;-146.82;100.00;71671.09;5071949;28;20056;-79
2023/08/17 03:13:39;;;;;;;5.90;4.13;;;;;;;-146.82;100.00;71671.09;5071989;28;20044;-78
2023/08/17 03:16:05;;;;;;;4.40;4.00;;;;;;;-146.82;100.00;71671.09;5073055;28;20075;-79
2023/08/17 03:18:30;;;;;;;5.47;4.20;;;;;;;-146.82;100.00;71671.09;5071654;28;20033;-79
2023/08/17 03:20:56;;;;;;;6.35;4.22;;;;;;;-146.82;100.00;71671.09;5071673;28;20024;-81
2023/08/17 03:23:21;;;;;;;6.20;4.00;;;;;;;-146.82;100.00;71671.09;5071757;28;20025;-79
2023/08/17 03:25:51;;;;;;;6.43;4.03;;;;;;;-146.82;100.00;71671.09;5071891;28;20485;-78
2023/08/17 03:28:17;;;;;;;7.30;3.75;;;;;;;-146.82;100.00;71671.09;5072967;28;20052;-79
2023/08/17 03:30:42;;;;;;;7.40;4.50;;;;;;;-146.82;100.00;71671.09;5073174;28;20458;-79
2023/08/17 03:33:09;;;;;;;8.55;4.20;;;;;;;-146.82;100.00;71671.09;5071731;28;20032;-79
2023/08/17 03:35:34;;;;;;;7.10;4.10;;;;;;;-146.82;100.00;71671.09;5071611;28;20068;-79
2023/08/17 03:38:00;;;;;;;7.10;4.07;;;;;;;-146.82;100.00;71671.09;5073128;28;20024;-79
2023/08/17 03:40:25;;;;;;;6.53;4.18;;;;;;;-146.82;100.00;71671.09;5071699;28;20385;-79
2023/08/17 03:42:50;;;;;;;7.85;4.45;;;;;;;-146.82;100.00;71671.09;5071749;28;20067;-79
2023/08/17 03:45:16;;;;;;;8.43;3.97;;;;;;;-146.82;100.00;71671.09;5073238;28;20048;-77
2023/08/17 03:47:41;;;;;;;6.03;4.30;;;;;;;-146.82;100.00;71671.09;5073484;28;20120;-80
2023/08/17 03:50:08;;;;;;;6.32;4.15;;;;;;;-146.82;100.00;71671.09;5073330;28;20032;-80
2023/08/17 03:52:33;;;;;;;6.47;4.57;;;;;;;-146.82;100.00;71671.09;5073381;28;20405;-79
2023/08/17 03:54:59;;;;;;;9.07;4.35;;;;;;;-146.82;100.00;71671.09;5071798;28;20056;-80
2023/08/17 03:57:24;;;;;;;5.38;4.40;;;;;;;-146.82;100.00;71671.09;5072861;28;20112;-81
2023/08/17 03:59:50;;;;;;;7.20;4.70;;;;;;;-146.82;100.00;71671.09;5071425;28;20028;-79
2023/08/17 04:02:15;;;;;;;8.10;5.10;;;;;;;-146.82;100.00;71671.09;5071506;28;20028;-79
2023/08/17 04:04:41;;;;;;;6.15;4.60;;;;;;;-146.82;100.00;71671.09;5073345;28;20053;-78
2023/08/17 04:07:06;;;;;;;6.68;4.47;;;;;;;-146.82;100.00;71671.09;5076312;28;20483;-80
2023/08/17 04:09:33;;;;;;;7.20;4.60;;;;;;;-146.82;100.00;71671.09;5076258;28;20036;-79
2023/08/17 04:11:59;;;;;;;5.82;4.50;;;;;;;-146.82;100.00;71671.09;5076320;28;20077;-80
2023/08/17 04:14:24;;;;;;;8.25;4.63;;;;;;;-146.82;100.00;71671.09;5076252;28;20025;-80
2023/08/17 04:16:49;;;;;;;8.85;4.68;;;;;;;-146.82;100.00;71671.09;5074963;28;20024;-79
2023/08/17 04:19:15;;;;;;;9.23;4.78;;;;;;;-146.82;100.00;71671.09;5076094;28;20040;-79
2023/08/17 04:21:40;;;;;;;8.63;4.63;;;;;;;-146.82;100.00;71671.09;5076130;28;20035;-79
2023/08/17 04:24:06;;;;;;;5.75;4.45;;;;;;;-146.82;100.00;71671.09;5076298;28;20036;-79
2023/08/17 04:26:31;;;;;;;7.30;4.45;;;;;;;-146.82;100.00;71671.09;5074854;28;20029;-79
2023/08/17 04:28:57;;;;;;;8.07;5.18;;;;;;;-146.82;100.00;71671.09;5091651;28;20060;-79
2023/08/17 04:31:23;;;;;;;4.68;4.07;;;;;;;-146.82;100.00;71671.09;5076167;28;20035;-80
2023/08/17 04:33:48;;;;;;;7.20;4.22;;;;;;;-146.82;100.00;71671.09;5075740;28;20469;-85
2023/08/17 04:36:14;;;;;;;5.70;4.55;;;;;;;-146.82;100.00;71671.09;5083771;28;20032;-86
2023/08/17 04:38:39;;;;;;;6.53;4.40;;;;;;;-146.82;100.00;71671.09;5079629;28;20033;-83
2023/08/17 04:41:04;;;;;;;6.47;4.53;;;;;;;-146.82;100.00;71671.09;5074067;28;20484;-79
2023/08/17 04:43:30;;;;;;;7.70;4.45;;;;;;;-146.82;100.00;71671.09;5075311;28;20032;-79
2023/08/17 04:45:56;;;;;;;7.05;4.10;;;;;;;-146.82;100.00;71671.09;5075511;28;20055;-78
2023/08/17 04:48:23;;;;;;;6.38;4.28;;;;;;;-146.82;100.00;71671.09;5075582;28;20016;-78
2023/08/17 04:50:48;;;;;;;9.43;5.05;;;;;;;-146.82;100.00;71671.09;5075576;28;20033;-79
2023/08/17 04:53:15;;;;;;;6.57;4.57;;;;;;;-146.82;100.00;71671.09;5090657;28;20096;-80
2023/08/17 04:55:41;;;;;;;7.10;4.18;;;;;;;-146.82;100.00;71671.09;5075636;28;20043;-79
2023/08/17 04:58:07;;;;;;;6.97;4.20;;;;;;;-146.82;100.00;71671.09;5090435;28;20490;-79
2023/08/17 05:00:33;;;;;;;10.30;5.10;;;;;;;-146.82;100.00;71671.09;5075686;28;20031;-80
2023/08/17 05:02:58;;;;;;;8.30;3.60;;;;;;;-146.82;100.00;71671.09;5078237;28;20056;-78
2023/08/17 05:05:25;;;;;;;7.63;4.40;;;;;;;-146.82;100.00;71671.09;5074401;28;20112;-78
2023/08/17 05:07:52;;;;;;;8.15;4.57;;;;;;;-146.82;100.00;71671.09;5075632;28;20545;-77
2023/08/17 05:10:19;;;;;;;7.60;5.10;;;;;;;-146.82;100.00;71671.09;5074013;28;20032;-75
2023/08/17 05:12:44;;;;;;;7.50;5.07;;;;;;;-146.82;100.00;71671.09;5075454;28;20093;-75
2023/08/17 05:15:11;;;;;;;7.15;4.85;;;;;;;-146.82;100.00;71671.09;5073913;28;20032;-74
2023/08/17 05:17:36;;;;;;;6.47;4.35;;;;;;;-146.82;100.00;71671.09;5072982;28;20067;-76
2023/08/17 05:20:04;;;;;;;5.00;4.15;;;;;;;-146.82;100.00;71671.09;5075413;28;20152;-76
2023/08/17 05:22:32;;;;;;;6.05;4.32;;;;;;;-146.82;100.00;71671.09;5075067;28;20029;-73
2023/08/17 05:24:58;;;;;;;7.70;4.25;;;;;;;-146.82;100.00;71671.09;5075065;28;20031;-75
2023/08/17 05:27:24;;;;;;;8.27;4.55;;;;;;;-146.82;100.00;71671.09;5075059;28;20028;-74
2023/08/17 05:29:52;;;;;;;6.25;4.00;;;;;;;-146.82;100.00;71671.09;5073720;28;20373;-74
2023/08/17 05:32:17;;;;;;;8.43;5.25;;;;;;;-146.82;100.00;71671.09;5075306;28;20033;-74
2023/08/17 05:34:43;;;;;;;7.10;4.70;;;;;;;-146.82;100.00;71671.09;5094807;28;20052;-74
2023/08/17 05:37:09;;;;;;;7.63;4.93;;;;;;;-146.82;100.00;71671.09;5078548;28;20032;-74
2023/08/17 05:39:37;;;;;;;8.60;4.80;;;;;;;-146.82;100.00;71671.09;5077158;28;20039;-76
2023/08/17 05:42:04;;;;;;;5.78;4.43;;;;;;;-146.82;100.00;71671.09;5075455;28;20098;-75
2023/08/17 05:44:32;;;;;;;6.15;4.45;;;;;;;-146.82;100.00;71671.09;5075640;28;20040;-73
2023/08/17 05:47:02;;;;;;;8.40;4.68;;;;;;;-146.82;100.00;71671.09;5077315;28;20439;-75
2023/08/17 05:49:27;;;;;;;5.55;4.85;;;;;;;-146.82;100.00;71671.09;5075711;28;20024;-75
2023/08/17 05:51:53;;;;;;;6.72;3.92;;;;;;;-146.82;100.00;71671.09;5074453;28;20024;-76
2023/08/17 05:54:18;;;;;;;7.53;4.30;;;;;;;-146.82;100.00;71671.09;5071972;28;20032;-75
2023/08/17 05:56:47;;;;;;;6.30;4.15;;;;;;;-146.82;100.00;71671.09;5073568;28;20040;-76
2023/08/17 05:59:13;;;;;;;8.07;4.47;;;;;;;-146.82;100.00;71671.09;5072391;28;20021;-74
2023/08/17 06:01:40;;;;;;;5.05;3.20;;;;;;;-146.82;100.00;71671.09;5071998;28;20020;-75
2023/08/17 06:04:05;;;;;;;6.57;3.50;;;;;;;-146.82;100.00;71671.09;5087166;28;20055;-76
2023/08/17 06:06:31;;;;;;;7.72;4.18;;;;;;;-146.82;100.00;71671.09;5072190;28;20028;-76
2023/08/17 06:08:56;;;;;;;5.53;3.80;;;;;;;-146.82;100.00;71671.09;5087610;28;20025;-76
2023/08/17 06:11:23;;;;;;;4.90;3.65;;;;;;;-146.82;100.00;71671.09;5071954;28;20028;-74
2023/08/17 06:13:48;;;;;;;9.90;4.55;;;;;;;-146.82;100.00;71671.09;5087271;28;20023;-74
2023/08/17 06:16:13;;;;;;;5.88;3.92;;;;;;;-146.82;100.00;71671.09;5072429;28;20024;-75
2023/08/17 06:18:39;;;;;;;6.18;4.00;;;;;;;-146.82;100.00;71671.09;5073861;28;20108;-73
2023/08/17 06:21:04;;;;;;;7.88;4.53;;;;;;;-146.82;100.00;71671.09;5073938;28;20070;-75
2023/08/17 06:23:30;;;;;;;8.65;4.43;;;;;;;-146.82;100.00;71671.09;5074130;28;20017;-75
2023/08/17 06:25:58;;;;;;;7.20;3.75;;;;;;;-146.82;100.00;71671.09;5073633;28;20020;-75
2023/08/17 06:28:25;;;;;;;11.02;4.88;;;;;;;-146.82;100.00;71671.09;5073283;28;20040;-75
2023/08/17 06:30:54;;;;;;;19.80;5.60;;;;;;;-146.82;100.00;71671.09;5074054;28;20026;-73
2023/08/17 06:33:20;;;;;;;9.50;4.45;;;;;;;-146.82;100.00;71671.09;5073815;28;20021;-76
2023/08/17 06:35:46;;;;;;;7.78;4.30;;;;;;;-146.82;100.00;71671.09;5073587;28;20381;-75
2023/08/17 06:38:11;;;;;;;7.00;4.32;;;;;;;-146.82;100.00;71671.09;5073529;28;20023;-76
2023/08/17 06:40:37;;;;;;;8.50;4.40;;;;;;;-146.82;100.00;71671.09;5072270;28;20020;-75
2023/08/17 06:43:03;;;;;;;5.13;3.95;;;;;;;-146.82;100.00;71671.09;5073413;28;20036;-76
2023/08/17 06:45:28;;;;;;;7.30;4.10;;;;;;;-146.82;100.00;71671.09;5072346;28;20505;-76
2023/08/17 06:47:54;;;;;;;8.23;4.35;;;;;;;-146.82;100.00;71671.09;5073503;28;20021;-75
2023/08/17 06:50:19;;;;;;;6.18;3.92;;;;;;;-146.82;100.00;71671.09;5073700;28;20016;-75
2023/08/17 06:52:44;;;;;;;31.58;7.72;;;;;;;-146.82;100.00;71671.09;5073483;28;20031;-76
2023/08/17 06:55:10;;;;;;;9.35;4.80;;;;;;;-146.82;100.00;71671.09;5073402;28;20099;-77
2023/08/17 06:57:36;;;;;;;12.40;4.38;;;;;;;-146.82;100.00;71671.09;5071994;28;20465;-75
2023/08/17 07:00:05;;;;;;;6.22;3.50;;;;;;;-146.82;100.00;71671.09;5073355;28;20024;-74
2023/08/17 07:02:30;;;;;;;5.05;3.70;;;;;;;-146.82;100.00;71671.09;5073476;28;20035;-75
2023/08/17 07:04:55;;;;;;;7.00;3.85;;;;;;;-146.82;100.00;71671.09;5073645;28;20376;-76
2023/08/17 07:07:21;;;;;;;4.45;3.95;;;;;;;-146.82;100.00;71671.09;5073245;28;20138;-76
2023/08/17 07:09:46;;;;;;;5.22;4.05;;;;;;;-146.82;100.00;71671.09;5073472;28;20059;-75
2023/08/17 07:12:12;;;;;;;4.28;3.88;;;;;;;-146.82;100.00;71671.09;5073046;28;20029;-75
2023/08/17 07:14:37;;;;;;;10.32;3.80;;;;;;;-146.82;100.00;71671.09;5073306;28;20040;-76
2023/08/17 07:17:02;;;;;;;6.45;3.08;;;;;;;-146.82;100.00;71671.09;5073569;28;20028;-74
2023/08/17 07:19:28;;;;;;;8.52;3.35;;;;;;;-146.82;100.00;71671.09;5073148;28;20099;-75
2023/08/17 07:21:53;;;;;;;6.63;3.33;;;;;;;-146.82;100.00;71671.09;5073355;28;20032;-77
2023/08/17 07:24:19;;;;;;;5.35;3.92;;;;;;;-146.82;100.00;71671.09;5073536;28;20099;-77
2023/08/17 07:26:44;;;;;;;7.60;3.58;;;;;;;-146.82;100.00;71671.09;5073482;28;20422;-76
2023/08/17 07:29:11;;;;;;;4.63;3.10;;;;;;;-146.82;100.00;71671.09;5071853;28;20555;-76
2023/08/17 07:31:37;;;;;;;7.25;3.33;;;;;;;-146.82;100.00;71671.09;5073151;28;20048;-76
2023/08/17 07:34:04;;;;;;;6.65;3.58;;;;;;;-146.82;100.00;71671.09;5089023;28;20369;-77
2023/08/17 07:36:29;;;;;;;6.47;3.72;;;;;;;-146.82;100.00;71671.09;5073121;28;20113;-75
2023/08/17 07:38:56;;;;;;;6.30;4.13;;;;;;;-146.82;100.00;71671.09;5075813;28;20422;-75
2023/08/17 07:41:21;;;;;;;8.43;3.80;;;;;;;-146.82;100.00;71671.09;5076743;28;20036;-76
2023/08/17 07:43:48;;;;;;;6.13;4.32;;;;;;;-146.82;100.00;71671.09;5076096;28;20354;-75
2023/08/17 07:46:15;;;;;;;7.90;3.78;;;;;;;-146.82;100.00;71671.09;5093218;28;20107;-77
2023/08/17 07:48:40;;;;;;;8.48;3.65;;;;;;;-146.82;100.00;71671.09;5077287;28;20093;-79
2023/08/17 07:51:06;;;;;;;6.68;3.60;;;;;;;-146.82;100.00;71671.09;5076829;28;20466;-79
2023/08/17 07:53:33;;;;;;;6.65;3.85;;;;;;;-146.82;100.00;71671.09;5092509;28;20075;-75
2023/08/17 07:56:00;;;;;;;9.75;3.88;;;;;;;-146.82;100.00;71671.09;5077006;28;20032;-76
2023/08/17 07:58:25;;;;;;;6.68;3.58;;;;;;;-146.82;100.00;71671.09;5075799;28;20041;-75
2023/08/17 08:00:50;;;;;;;7.07;3.30;;;;;;;-146.82;100.00;71671.09;5078236;28;20527;-75
2023/08/17 08:03:16;;;;;;;5.13;3.03;;;;;;;-146.82;100.00;71671.09;5075836;28;20048;-75
2023/08/17 08:05:42;;;;;;;4.30;2.85;;;;;;;-146.82;100.00;71671.09;5076342;28;20021;-76
2023/08/17 08:08:08;;;;;;;7.28;2.50;;;;;;;-146.82;100.00;71671.09;5076731;28;20444;-76
2023/08/17 08:10:33;;;;;;;5.07;2.60;;;;;;;-146.82;100.00;71671.09;5076894;28;20056;-77
2023/08/17 08:12:59;;;;;;;3.85;2.50;;;;;;;-146.82;100.00;71671.09;5076827;28;20067;-78
2023/08/17 08:15:26;;;;;;;2.75;2.50;;;;;;;-146.82;100.00;71671.09;5076472;28;20037;-78
2023/08/17 08:17:51;;;;;;;3.78;2.63;;;;;;;-146.82;100.00;71671.09;5076836;28;20465;-78
2023/08/17 08:20:17;;;;;;;4.53;2.60;;;;;;;-146.82;100.00;71671.09;5076836;28;20107;-80
2023/08/17 08:22:42;;;;;;;3.92;2.50;;;;;;;-146.82;100.00;71671.09;5075316;28;20021;-78
2023/08/17 08:25:08;;;;;;;6.47;2.72;;;;;;;-146.82;100.00;71671.09;5076180;28;20024;-78
2023/08/17 08:27:34;;;;;;;4.30;2.85;;;;;;;-146.82;100.00;71671.09;5092146;28;20075;-78
2023/08/17 08:29:59;;;;;;;4.88;2.45;;;;;;;-146.82;100.00;71671.09;5076451;28;20016;-76
2023/08/17 08:32:26;;;;;;;3.13;2.83;;;;;;;-146.82;100.00;71671.09;5074497;28;20046;-78
2023/08/17 08:34:52;;;;;;;9.63;2.78;;;;;;;-146.82;100.00;71671.09;5092278;28;20082;-76
2023/08/17 08:37:18;;;;;;;3.80;2.65;;;;;;;-146.82;100.00;71671.09;5076298;28;20028;-75
2023/08/17 08:39:51;;;;;;;5.13;2.70;;;;;;;-146.82;100.00;71671.09;5073483;28;20116;-77
2023/08/17 08:42:19;;;;;;;8.43;2.78;;;;;;;-146.82;100.00;71671.09;5076473;28;20024;-76
2023/08/17 08:44:45;;;;;;;6.10;2.53;;;;;;;-146.82;100.00;71671.09;5075907;28;20069;-78
2023/08/17 08:47:12;;;;;;;4.55;2.45;;;;;;;-146.82;100.00;71671.09;5074940;28;20036;-77
2023/08/17 08:50:03;;;;;;;6.20;2.85;;;;;;;-146.82;100.00;71671.09;5090946;28;20037;-77
2023/08/17 08:52:59;;;;;;;3.85;2.80;;;;;;;-146.82;100.00;71671.09;5075688;28;20028;-77
2023/08/17 08:55:37;;;;;;;3.88;2.97;;;;;;;-146.82;100.00;71671.09;5057888;28;20096;-76
2023/08/17 08:58:04;;;;;;;5.28;3.13;;;;;;;-146.82;100.00;71671.09;5075989;28;20111;-76
2023/08/17 09:00:30;;;;;;;4.43;3.03;;;;;;;-146.82;100.00;71671.09;5091175;28;20036;-78
2023/08/17 09:02:56;;;;;;;4.97;3.13;;;;;;;-146.82;100.00;71671.09;5074365;28;20378;-77
2023/08/17 09:05:23;;;;;;;5.50;3.00;;;;;;;-146.82;100.00;71671.09;5074380;28;20025;-77
2023/08/17 09:07:50;;;;;;;5.07;3.08;;;;;;;-146.82;100.00;71671.09;5074396;28;20031;-78
2023/08/17 09:10:17;;;;;;;2.95;2.60;;;;;;;-146.82;100.00;71671.09;5074473;28;20040;-77
2023/08/17 09:12:45;;;;;;;5.00;2.92;;;;;;;-146.82;100.00;71671.09;5090991;28;20078;-77
2023/08/17 09:15:23;;;;;;;4.15;2.97;;;;;;;-146.82;100.00;71671.09;5090634;28;20032;-77
2023/08/17 09:17:50;;;;;;;4.88;3.13;;;;;;;-146.82;100.00;71671.09;5075447;28;20031;-77
2023/08/17 09:20:55;;;;;;;5.40;3.30;;;;;;;-146.82;100.00;71671.09;5091034;28;20189;-77
2023/08/17 09:23:35;;;;;;;9.70;3.60;;;;;;;-146.82;100.00;71671.09;5013403;28;20487;-77
2023/08/17 09:26:08;;;;;;;5.05;3.10;;;;;;;-146.82;100.00;71671.09;5013917;28;20041;-78
2023/08/17 09:28:54;;;;;;;4.78;3.00;;;;;;;-146.82;100.00;71671.09;5013553;28;20104;-77
2023/08/17 09:31:23;;;;;;;6.55;3.20;;;;;;;-146.82;100.00;71671.09;5013546;28;20041;-79
2023/08/17 09:33:53;;;;;;;4.60;3.33;;;;;;;-146.82;100.00;71671.09;5020691;28;20038;-78
2023/08/17 09:36:31;;;;;;;4.85;2.75;;;;;;;-146.82;100.00;71671.09;5073683;28;20025;-78
2023/08/17 09:38:57;;;;;;;4.90;2.60;;;;;;;-146.82;100.00;71671.09;5072171;28;20021;-78
2023/08/17 09:41:22;;;;;;;5.78;3.30;;;;;;;-146.82;100.00;71671.09;5067980;28;20222;-78
2023/08/17 09:43:47;;;;;;;3.95;2.70;;;;;;;-146.82;100.00;71671.09;5074407;28;20102;-78
2023/08/17 09:46:14;;;;;;;4.65;2.90;;;;;;;-146.82;100.00;71671.09;5074875;28;20074;-78
2023/08/17 09:48:39;;;;;;;4.57;2.50;;;;;;;-146.82;100.00;71671.09;5074191;28;20095;-79
2023/08/17 09:51:06;;;;;;;5.20;3.00;;;;;;;-146.82;100.00;71671.09;5077769;28;20119;-78
2023/08/17 09:53:37;;;;;;;3.38;3.08;;;;;;;-146.82;100.00;71671.09;5083202;28;20020;-78
2023/08/17 09:56:07;;;;;;;4.13;2.60;;;;;;;-146.82;100.00;71671.09;5084179;28;20028;-80
2023/08/17 09:58:38;;;;;;;4.90;2.80;;;;;;;-146.82;100.00;71671.09;5116448;28;20474;-79
2023/08/17 10:01:05;;;;;;;4.88;2.80;;;;;;;-146.82;100.00;71671.09;5080771;28;20024;-77
2023/08/17 10:03:34;;;;;;;7.43;3.05;;;;;;;-146.82;100.00;71671.09;5075473;28;20045;-77
2023/08/17 10:06:06;;;;;;;3.13;2.83;;;;;;;-146.82;100.00;71671.09;5074831;28;20023;-78
2023/08/17 10:08:33;;;;;;;4.10;2.78;;;;;;;-146.82;100.00;71671.09;5107034;28;20020;-78
2023/08/17 10:11:02;;;;;;;2.97;2.67;;;;;;;-146.82;100.00;71671.09;5073569;28;20111;-80
2023/08/17 10:13:34;;;;;;;4.43;2.83;;;;;;;-146.82;100.00;71671.09;5073023;28;20025;-79
2023/08/17 10:16:19;;;;;;;4.88;2.60;;;;;;;-146.82;100.00;71671.09;5074587;28;20488;-80
2023/08/17 10:18:55;;;;;;;4.35;2.95;;;;;;;-146.82;100.00;71671.09;5074794;28;20111;-77
2023/08/17 10:21:37;;;;;;;4.53;2.90;;;;;;;-146.82;100.00;71671.09;5074281;28;20499;-79
2023/08/17 10:24:03;;;;;;;10.07;3.17;;;;;;;-146.82;100.00;71671.09;5074148;28;20074;-79
2023/08/17 10:26:29;;;;;;;5.03;2.63;;;;;;;-146.82;100.00;71671.09;5106858;28;20054;-78
2023/08/17 10:29:10;;;;;;;5.70;2.88;;;;;;;-146.82;100.00;71671.09;5089839;28;20024;-79
2023/08/17 10:31:35;;;;;;;6.15;3.17;;;;;;;-146.82;100.00;71671.09;5074195;28;20040;-78
2023/08/17 10:34:02;;;;;;;4.72;3.20;;;;;;;-146.82;100.00;71671.09;5106867;28;20457;-79
2023/08/17 10:36:31;;;;;;;6.25;2.50;;;;;;;-146.82;100.00;71671.09;5106765;28;20040;-79
2023/08/17 10:39:25;;;;;;;3.50;2.75;;;;;;;-146.82;100.00;71671.09;5106459;28;20113;-80
2023/08/17 10:41:51;;;;;;;3.25;2.95;;;;;;;-146.82;100.00;71671.09;5073001;28;20090;-78
2023/08/17 10:44:48;;;;;;;3.63;3.00;;;;;;;-146.82;100.00;71671.09;5074027;28;20052;-79
2023/08/17 10:47:30;;;;;;;3.60;2.40;;;;;;;-146.82;100.00;71671.09;5073914;28;20028;-78
2023/08/17 10:50:21;;;;;;;3.28;2.97;;;;;;;-146.82;100.00;71671.09;5072437;28;20044;-77
2023/08/17 10:52:48;;;;;;;7.63;2.85;;;;;;;-146.82;100.00;71671.09;5072618;28;20040;-77
2023/08/17 10:55:15;;;;;;;4.15;2.70;;;;;;;-146.82;100.00;71671.09;5106414;28;20031;-78
2023/08/17 10:57:42;;;;;;;4.13;2.60;;;;;;;-146.82;100.00;71671.09;5073534;28;20024;-77
2023/08/17 11:00:10;;;;;;;4.53;2.38;;;;;;;-146.82;100.00;71671.09;5105830;28;20036;-76
2023/08/17 11:02:37;;;;;;;2.88;2.67;;;;;;;-146.82;100.00;71671.09;5073276;28;20046;-77
2023/08/17 11:05:09;;;;;;;3.17;2.88;;;;;;;-146.82;100.00;71671.09;5106335;28;20036;-76
2023/08/17 11:07:42;;;;;;;3.35;3.03;;;;;;;-146.82;100.00;71671.09;5073394;28;20036;-78
2023/08/17 11:10:22;;;;;;;2.72;2.35;;;;;;;-146.82;100.00;71671.09;5073400;28;20059;-76